sensor_id;sensor_type;location;lat;lon;timestamp;P1;durP1;ratioP1;P2;durP2;ratioP2
9940;SDS011;5009;50.656;7.188;2024-01-30T05:02:18;12.43;;;10.33;;
9940;SDS011;5009;50.656;7.188;2024-01-30T05:04:43;12.70;;;10.90;;
9940;SDS011;5009;50.656;7.188;2024-01-30T05:07:09;13.50;;;12.03;;
9940;SDS011;5009;50.656;7.188;2024-01-30T05:09:34;13.07;;;10.47;;
9940;SDS011;5009;50.656;7.188;2024-01-30T05:12:00;16.13;;;11.60;;
9940;SDS011;5009;50.656;7.188;2024-01-30T05:14:26;15.03;;;12.07;;
9940;SDS011;5009;50.656;7.188;2024-01-30T05:16:51;15.13;;;11.53;;
9940;SDS011;5009;50.656;7.188;2024-01-30T05:19:17;12.40;;;10.73;;
9940;SDS011;5009;50.656;7.188;2024-01-30T05:21:42;14.90;;;12.03;;
9940;SDS011;5009;50.656;7.188;2024-01-30T05:24:08;13.83;;;11.53;;
9940;SDS011;5009;50.656;7.188;2024-01-30T05:26:35;13.03;;;11.07;;
9940;SDS011;5009;50.656;7.188;2024-01-30T05:29:01;11.83;;;10.63;;
9940;SDS011;5009;50.656;7.188;2024-01-30T05:31:26;11.63;;;9.83;;
9940;SDS011;5009;50.656;7.188;2024-01-30T05:33:52;12.73;;;10.83;;
9940;SDS011;5009;50.656;7.188;2024-01-30T05:36:17;15.00;;;10.90;;
9940;SDS011;5009;50.656;7.188;2024-01-30T05:38:43;12.20;;;10.77;;
9940;SDS011;5009;50.656;7.188;2024-01-30T05:41:08;15.13;;;11.23;;
9940;SDS011;5009;50.656;7.188;2024-01-30T05:43:34;14.37;;;12.20;;
9940;SDS011;5009;50.656;7.188;2024-01-30T05:46:00;14.13;;;11.07;;
9940;SDS011;5009;50.656;7.188;2024-01-30T05:48:25;13.67;;;11.13;;
9940;SDS011;5009;50.656;7.188;2024-01-30T05:50:51;14.07;;;12.03;;
9940;SDS011;5009;50.656;7.188;2024-01-30T05:53:16;16.33;;;11.53;;
9940;SDS011;5009;50.656;7.188;2024-01-30T05:55:42;13.73;;;11.03;;
9940;SDS011;5009;50.656;7.188;2024-01-30T05:58:07;14.77;;;11.67;;
9940;SDS011;5009;50.656;7.188;2024-01-30T06:00:33;13.97;;;11.93;;
9940;SDS011;5009;50.656;7.188;2024-01-30T06:02:59;12.37;;;11.07;;
9940;SDS011;5009;50.656;7.188;2024-01-30T06:05:24;12.40;;;11.03;;
9940;SDS011;5009;50.656;7.188;2024-01-30T06:07:50;13.03;;;10.87;;
9940;SDS011;5009;50.656;7.188;2024-01-30T06:10:15;11.30;;;10.20;;
9940;SDS011;5009;50.656;7.188;2024-01-30T06:12:41;13.67;;;11.53;;
9940;SDS011;5009;50.656;7.188;2024-01-30T06:15:06;12.53;;;11.23;;
9940;SDS011;5009;50.656;7.188;2024-01-30T06:17:32;13.73;;;11.63;;
9940;SDS011;5009;50.656;7.188;2024-01-30T06:19:58;15.57;;;11.93;;
9940;SDS011;5009;50.656;7.188;2024-01-30T06:22:24;12.87;;;11.57;;
9940;SDS011;5009;50.656;7.188;2024-01-30T06:24:49;15.27;;;11.73;;
9940;SDS011;5009;50.656;7.188;2024-01-30T06:27:15;12.57;;;11.30;;
9940;SDS011;5009;50.656;7.188;2024-01-30T06:29:41;16.07;;;11.93;;
9940;SDS011;5009;50.656;7.188;2024-01-30T06:32:08;13.67;;;12.20;;
9940;SDS011;5009;50.656;7.188;2024-01-30T06:34:34;14.77;;;11.73;;
9940;SDS011;5009;50.656;7.188;2024-01-30T06:36:59;15.10;;;12.20;;
9940;SDS011;5009;50.656;7.188;2024-01-30T06:39:25;15.73;;;12.03;;
9940;SDS011;5009;50.656;7.188;2024-01-30T06:41:51;14.80;;;11.17;;
9940;SDS011;5009;50.656;7.188;2024-01-30T06:44:17;12.90;;;11.37;;
9940;SDS011;5009;50.656;7.188;2024-01-30T06:46:42;13.20;;;11.33;;
9940;SDS011;5009;50.656;7.188;2024-01-30T06:49:08;13.10;;;11.13;;
9940;SDS011;5009;50.656;7.188;2024-01-30T06:51:33;14.90;;;12.20;;
9940;SDS011;5009;50.656;7.188;2024-01-30T06:53:59;12.50;;;11.27;;
9940;SDS011;5009;50.656;7.188;2024-01-30T06:56:25;14.13;;;11.73;;
9940;SDS011;5009;50.656;7.188;2024-01-30T06:58:50;12.43;;;11.07;;
9940;SDS011;5009;50.656;7.188;2024-01-30T07:01:16;13.57;;;11.77;;
9940;SDS011;5009;50.656;7.188;2024-01-30T07:03:41;13.23;;;11.63;;
9940;SDS011;5009;50.656;7.188;2024-01-30T07:06:07;15.53;;;12.03;;
9940;SDS011;5009;50.656;7.188;2024-01-30T07:08:34;15.03;;;11.63;;
9940;SDS011;5009;50.656;7.188;2024-01-30T07:10:59;14.83;;;11.73;;
9940;SDS011;5009;50.656;7.188;2024-01-30T07:13:25;14.30;;;12.57;;
9940;SDS011;5009;50.656;7.188;2024-01-30T07:15:50;14.57;;;12.63;;
9940;SDS011;5009;50.656;7.188;2024-01-30T07:18:16;14.47;;;12.73;;
9940;SDS011;5009;50.656;7.188;2024-01-30T07:20:42;15.00;;;13.33;;
9940;SDS011;5009;50.656;7.188;2024-01-30T07:23:14;16.03;;;14.23;;
9940;SDS011;5009;50.656;7.188;2024-01-30T07:25:43;16.30;;;13.23;;
9940;SDS011;5009;50.656;7.188;2024-01-30T07:28:09;16.80;;;12.97;;
9940;SDS011;5009;50.656;7.188;2024-01-30T07:30:36;15.93;;;13.90;;
9940;SDS011;5009;50.656;7.188;2024-01-30T07:33:01;17.23;;;14.03;;
9940;SDS011;5009;50.656;7.188;2024-01-30T07:35:27;18.63;;;13.20;;
9940;SDS011;5009;50.656;7.188;2024-01-30T07:37:52;16.77;;;13.37;;
9940;SDS011;5009;50.656;7.188;2024-01-30T07:40:18;19.20;;;13.37;;
9940;SDS011;5009;50.656;7.188;2024-01-30T07:42:44;14.07;;;12.60;;
9940;SDS011;5009;50.656;7.188;2024-01-30T07:45:09;16.17;;;12.93;;
9940;SDS011;5009;50.656;7.188;2024-01-30T07:47:35;14.07;;;12.60;;
9940;SDS011;5009;50.656;7.188;2024-01-30T07:50:00;15.77;;;13.13;;
9940;SDS011;5009;50.656;7.188;2024-01-30T07:52:26;15.63;;;13.23;;
9940;SDS011;5009;50.656;7.188;2024-01-30T07:54:52;16.93;;;13.70;;
9940;SDS011;5009;50.656;7.188;2024-01-30T07:57:17;14.77;;;12.83;;
9940;SDS011;5009;50.656;7.188;2024-01-30T07:59:43;14.87;;;13.33;;
9940;SDS011;5009;50.656;7.188;2024-01-30T08:02:09;14.63;;;13.07;;
9940;SDS011;5009;50.656;7.188;2024-01-30T08:04:38;15.80;;;14.00;;
9940;SDS011;5009;50.656;7.188;2024-01-30T08:07:04;13.53;;;12.17;;
9940;SDS011;5009;50.656;7.188;2024-01-30T08:09:29;15.53;;;13.23;;
9940;SDS011;5009;50.656;7.188;2024-01-30T08:11:55;17.13;;;12.93;;
9940;SDS011;5009;50.656;7.188;2024-01-30T08:14:20;13.47;;;12.00;;
9940;SDS011;5009;50.656;7.188;2024-01-30T08:16:46;14.30;;;12.80;;
9940;SDS011;5009;50.656;7.188;2024-01-30T08:19:11;13.77;;;12.30;;
9940;SDS011;5009;50.656;7.188;2024-01-30T08:21:37;15.63;;;12.17;;
9940;SDS011;5009;50.656;7.188;2024-01-30T08:24:03;17.37;;;13.20;;
9940;SDS011;5009;50.656;7.188;2024-01-30T08:26:29;15.33;;;12.57;;
9940;SDS011;5009;50.656;7.188;2024-01-30T08:28:55;15.73;;;12.03;;
9940;SDS011;5009;50.656;7.188;2024-01-30T08:31:21;14.77;;;12.33;;
9940;SDS011;5009;50.656;7.188;2024-01-30T08:33:47;18.23;;;13.47;;
9940;SDS011;5009;50.656;7.188;2024-01-30T08:36:12;15.77;;;12.83;;
9940;SDS011;5009;50.656;7.188;2024-01-30T08:38:38;14.03;;;12.53;;
9940;SDS011;5009;50.656;7.188;2024-01-30T08:41:03;13.23;;;11.90;;
9940;SDS011;5009;50.656;7.188;2024-01-30T08:43:30;15.37;;;12.93;;
9940;SDS011;5009;50.656;7.188;2024-01-30T08:45:55;15.97;;;13.00;;
9940;SDS011;5009;50.656;7.188;2024-01-30T08:48:23;15.63;;;13.13;;
9940;SDS011;5009;50.656;7.188;2024-01-30T08:50:50;14.77;;;12.83;;
9940;SDS011;5009;50.656;7.188;2024-01-30T08:53:15;15.73;;;13.10;;
9940;SDS011;5009;50.656;7.188;2024-01-30T08:55:41;13.57;;;11.73;;
9940;SDS011;5009;50.656;7.188;2024-01-30T08:58:07;15.17;;;12.33;;
9940;SDS011;5009;50.656;7.188;2024-01-30T09:00:32;15.60;;;12.80;;
9940;SDS011;5009;50.656;7.188;2024-01-30T09:02:58;14.43;;;11.53;;
9940;SDS011;5009;50.656;7.188;2024-01-30T09:05:24;15.00;;;12.77;;
9940;SDS011;5009;50.656;7.188;2024-01-30T09:07:49;13.80;;;12.37;;
9940;SDS011;5009;50.656;7.188;2024-01-30T09:10:15;14.27;;;11.97;;
9940;SDS011;5009;50.656;7.188;2024-01-30T09:12:40;14.87;;;13.27;;
9940;SDS011;5009;50.656;7.188;2024-01-30T09:15:06;14.47;;;12.03;;
9940;SDS011;5009;50.656;7.188;2024-01-30T09:17:32;13.80;;;11.90;;
9940;SDS011;5009;50.656;7.188;2024-01-30T09:19:58;17.40;;;12.57;;
9940;SDS011;5009;50.656;7.188;2024-01-30T09:22:24;18.93;;;12.20;;
9940;SDS011;5009;50.656;7.188;2024-01-30T09:24:49;19.47;;;14.53;;
9940;SDS011;5009;50.656;7.188;2024-01-30T09:27:15;18.77;;;13.40;;
9940;SDS011;5009;50.656;7.188;2024-01-30T09:29:40;14.80;;;13.20;;
9940;SDS011;5009;50.656;7.188;2024-01-30T09:32:06;14.77;;;12.13;;
9940;SDS011;5009;50.656;7.188;2024-01-30T09:34:32;13.93;;;12.43;;
9940;SDS011;5009;50.656;7.188;2024-01-30T09:36:58;14.50;;;11.77;;
9940;SDS011;5009;50.656;7.188;2024-01-30T09:39:25;13.47;;;11.30;;
9940;SDS011;5009;50.656;7.188;2024-01-30T09:41:55;14.23;;;11.50;;
9940;SDS011;5009;50.656;7.188;2024-01-30T09:44:37;14.90;;;12.03;;
9940;SDS011;5009;50.656;7.188;2024-01-30T09:47:03;12.30;;;11.00;;
9940;SDS011;5009;50.656;7.188;2024-01-30T09:49:31;16.37;;;11.80;;
9940;SDS011;5009;50.656;7.188;2024-01-30T09:51:58;13.33;;;11.07;;
9940;SDS011;5009;50.656;7.188;2024-01-30T09:54:23;13.90;;;10.40;;
9940;SDS011;5009;50.656;7.188;2024-01-30T09:56:49;13.23;;;10.37;;
9940;SDS011;5009;50.656;7.188;2024-01-30T09:59:15;12.10;;;10.43;;
9940;SDS011;5009;50.656;7.188;2024-01-30T10:01:40;14.07;;;10.13;;
9940;SDS011;5009;50.656;7.188;2024-01-30T10:04:07;10.70;;;9.63;;
9940;SDS011;5009;50.656;7.188;2024-01-30T10:06:33;11.40;;;9.33;;
9940;SDS011;5009;50.656;7.188;2024-01-30T10:08:59;11.10;;;8.97;;
9940;SDS011;5009;50.656;7.188;2024-01-30T10:11:24;12.17;;;9.37;;
9940;SDS011;5009;50.656;7.188;2024-01-30T10:13:50;11.07;;;9.97;;
9940;SDS011;5009;50.656;7.188;2024-01-30T10:16:15;11.57;;;9.90;;
9940;SDS011;5009;50.656;7.188;2024-01-30T10:18:41;11.73;;;9.70;;
9940;SDS011;5009;50.656;7.188;2024-01-30T10:21:07;12.00;;;10.37;;
9940;SDS011;5009;50.656;7.188;2024-01-30T10:23:34;15.67;;;11.10;;
9940;SDS011;5009;50.656;7.188;2024-01-30T10:25:59;12.97;;;11.33;;
9940;SDS011;5009;50.656;7.188;2024-01-30T10:28:27;16.00;;;11.67;;
9940;SDS011;5009;50.656;7.188;2024-01-30T10:30:58;13.57;;;10.93;;
9940;SDS011;5009;50.656;7.188;2024-01-30T10:33:28;14.53;;;11.27;;
9940;SDS011;5009;50.656;7.188;2024-01-30T10:36:00;11.43;;;10.27;;
9940;SDS011;5009;50.656;7.188;2024-01-30T10:38:31;11.20;;;10.00;;
9940;SDS011;5009;50.656;7.188;2024-01-30T10:40:57;12.03;;;10.83;;
9940;SDS011;5009;50.656;7.188;2024-01-30T10:43:26;12.93;;;10.20;;
9940;SDS011;5009;50.656;7.188;2024-01-30T10:46:08;13.03;;;10.43;;
9940;SDS011;5009;50.656;7.188;2024-01-30T10:48:38;14.73;;;12.10;;
9940;SDS011;5009;50.656;7.188;2024-01-30T10:51:09;25.80;;;16.97;;
9940;SDS011;5009;50.656;7.188;2024-01-30T10:53:35;19.10;;;15.27;;
9940;SDS011;5009;50.656;7.188;2024-01-30T10:56:02;18.47;;;14.00;;
9940;SDS011;5009;50.656;7.188;2024-01-30T10:58:29;32.23;;;18.03;;
9940;SDS011;5009;50.656;7.188;2024-01-30T11:00:55;20.53;;;15.50;;
9940;SDS011;5009;50.656;7.188;2024-01-30T11:03:21;21.33;;;15.97;;
9940;SDS011;5009;50.656;7.188;2024-01-30T11:05:50;22.97;;;17.37;;
9940;SDS011;5009;50.656;7.188;2024-01-30T11:08:26;17.03;;;13.87;;
9940;SDS011;5009;50.656;7.188;2024-01-30T11:10:55;11.30;;;10.10;;
9940;SDS011;5009;50.656;7.188;2024-01-30T11:13:28;12.30;;;9.10;;
9940;SDS011;5009;50.656;7.188;2024-01-30T11:15:54;11.70;;;9.53;;
9940;SDS011;5009;50.656;7.188;2024-01-30T11:18:23;16.80;;;9.53;;
9940;SDS011;5009;50.656;7.188;2024-01-30T11:20:50;12.07;;;9.73;;
9940;SDS011;5009;50.656;7.188;2024-01-30T11:23:16;10.67;;;9.57;;
9940;SDS011;5009;50.656;7.188;2024-01-30T11:25:43;13.37;;;9.63;;
9940;SDS011;5009;50.656;7.188;2024-01-30T11:28:16;13.17;;;9.63;;
9940;SDS011;5009;50.656;7.188;2024-01-30T11:30:42;13.33;;;9.03;;
9940;SDS011;5009;50.656;7.188;2024-01-30T11:33:08;11.17;;;9.67;;
9940;SDS011;5009;50.656;7.188;2024-01-30T11:35:41;12.13;;;9.83;;
9940;SDS011;5009;50.656;7.188;2024-01-30T11:38:08;12.63;;;9.50;;
9940;SDS011;5009;50.656;7.188;2024-01-30T11:40:36;10.03;;;9.07;;
9940;SDS011;5009;50.656;7.188;2024-01-30T11:43:03;10.50;;;9.50;;
9940;SDS011;5009;50.656;7.188;2024-01-30T11:45:30;11.17;;;9.30;;
9940;SDS011;5009;50.656;7.188;2024-01-30T11:47:56;12.33;;;9.60;;
9940;SDS011;5009;50.656;7.188;2024-01-30T11:50:22;10.50;;;9.27;;
9940;SDS011;5009;50.656;7.188;2024-01-30T11:52:49;11.63;;;10.43;;
9940;SDS011;5009;50.656;7.188;2024-01-30T11:55:15;11.80;;;9.93;;
9940;SDS011;5009;50.656;7.188;2024-01-30T11:57:41;11.03;;;9.03;;
9940;SDS011;5009;50.656;7.188;2024-01-30T12:00:13;12.80;;;10.97;;
9940;SDS011;5009;50.656;7.188;2024-01-30T12:02:40;10.90;;;9.50;;
9940;SDS011;5009;50.656;7.188;2024-01-30T12:05:06;10.70;;;9.23;;
9940;SDS011;5009;50.656;7.188;2024-01-30T12:07:32;10.47;;;9.37;;
9940;SDS011;5009;50.656;7.188;2024-01-30T12:09:58;13.33;;;9.63;;
9940;SDS011;5009;50.656;7.188;2024-01-30T12:12:27;10.33;;;9.20;;
9940;SDS011;5009;50.656;7.188;2024-01-30T12:14:54;10.00;;;8.73;;
9940;SDS011;5009;50.656;7.188;2024-01-30T12:17:30;9.60;;;8.60;;
9940;SDS011;5009;50.656;7.188;2024-01-30T12:20:11;11.03;;;9.30;;
9940;SDS011;5009;50.656;7.188;2024-01-30T12:22:41;10.00;;;9.00;;
9940;SDS011;5009;50.656;7.188;2024-01-30T12:27:37;10.17;;;8.23;;
9940;SDS011;5009;50.656;7.188;2024-01-30T12:30:07;15.50;;;9.57;;
9940;SDS011;5009;50.656;7.188;2024-01-30T12:32:35;9.93;;;8.83;;
9940;SDS011;5009;50.656;7.188;2024-01-30T12:35:01;9.67;;;8.27;;
9940;SDS011;5009;50.656;7.188;2024-01-30T12:37:27;12.63;;;9.60;;
9940;SDS011;5009;50.656;7.188;2024-01-30T12:39:54;9.93;;;8.67;;
9940;SDS011;5009;50.656;7.188;2024-01-30T12:42:20;11.43;;;9.40;;
9940;SDS011;5009;50.656;7.188;2024-01-30T12:44:49;14.67;;;9.27;;
9940;SDS011;5009;50.656;7.188;2024-01-30T12:47:15;11.93;;;8.67;;
9940;SDS011;5009;50.656;7.188;2024-01-30T12:49:42;9.67;;;8.00;;
9940;SDS011;5009;50.656;7.188;2024-01-30T12:52:09;10.60;;;8.67;;
9940;SDS011;5009;50.656;7.188;2024-01-30T12:54:35;13.50;;;8.33;;
9940;SDS011;5009;50.656;7.188;2024-01-30T12:57:00;11.73;;;9.00;;
9940;SDS011;5009;50.656;7.188;2024-01-30T12:59:26;11.27;;;8.13;;
9940;SDS011;5009;50.656;7.188;2024-01-30T13:01:51;15.13;;;9.33;;
9940;SDS011;5009;50.656;7.188;2024-01-30T13:04:17;13.40;;;9.33;;
9940;SDS011;5009;50.656;7.188;2024-01-30T13:06:42;12.70;;;9.30;;
9940;SDS011;5009;50.656;7.188;2024-01-30T13:09:08;10.93;;;9.03;;
9940;SDS011;5009;50.656;7.188;2024-01-30T13:11:34;13.60;;;10.47;;
9940;SDS011;5009;50.656;7.188;2024-01-30T13:13:59;10.80;;;8.27;;
9940;SDS011;5009;50.656;7.188;2024-01-30T13:16:25;13.73;;;9.67;;
9940;SDS011;5009;50.656;7.188;2024-01-30T13:18:51;9.27;;;8.03;;
9940;SDS011;5009;50.656;7.188;2024-01-30T13:21:16;10.37;;;9.13;;
9940;SDS011;5009;50.656;7.188;2024-01-30T13:23:42;10.63;;;9.50;;
9940;SDS011;5009;50.656;7.188;2024-01-30T13:26:08;11.93;;;9.70;;
9940;SDS011;5009;50.656;7.188;2024-01-30T13:28:33;13.17;;;9.80;;
9940;SDS011;5009;50.656;7.188;2024-01-30T13:30:59;10.67;;;9.07;;
9940;SDS011;5009;50.656;7.188;2024-01-30T13:33:24;10.63;;;9.17;;
9940;SDS011;5009;50.656;7.188;2024-01-30T13:35:51;10.23;;;8.80;;
9940;SDS011;5009;50.656;7.188;2024-01-30T13:38:16;12.00;;;8.77;;
9940;SDS011;5009;50.656;7.188;2024-01-30T13:40:42;10.60;;;9.50;;
9940;SDS011;5009;50.656;7.188;2024-01-30T13:43:07;12.70;;;9.40;;
9940;SDS011;5009;50.656;7.188;2024-01-30T13:45:33;10.83;;;9.57;;
9940;SDS011;5009;50.656;7.188;2024-01-30T13:47:59;11.87;;;9.53;;
9940;SDS011;5009;50.656;7.188;2024-01-30T13:50:24;13.67;;;10.73;;
9940;SDS011;5009;50.656;7.188;2024-01-30T13:52:50;13.23;;;9.97;;
9940;SDS011;5009;50.656;7.188;2024-01-30T13:55:15;16.97;;;9.50;;
9940;SDS011;5009;50.656;7.188;2024-01-30T13:57:41;11.13;;;9.10;;
9940;SDS011;5009;50.656;7.188;2024-01-30T14:00:07;12.60;;;9.37;;
9940;SDS011;5009;50.656;7.188;2024-01-30T14:02:32;10.10;;;8.97;;
9940;SDS011;5009;50.656;7.188;2024-01-30T14:04:58;11.77;;;9.13;;
9940;SDS011;5009;50.656;7.188;2024-01-30T14:07:24;11.00;;;8.83;;
9940;SDS011;5009;50.656;7.188;2024-01-30T14:09:49;11.60;;;8.70;;
9940;SDS011;5009;50.656;7.188;2024-01-30T14:12:15;11.40;;;9.20;;
9940;SDS011;5009;50.656;7.188;2024-01-30T14:14:41;9.67;;;8.20;;
9940;SDS011;5009;50.656;7.188;2024-01-30T14:17:07;9.63;;;8.33;;
9940;SDS011;5009;50.656;7.188;2024-01-30T14:19:35;12.20;;;9.70;;
9940;SDS011;5009;50.656;7.188;2024-01-30T14:22:01;10.07;;;8.43;;
9940;SDS011;5009;50.656;7.188;2024-01-30T14:24:27;11.57;;;9.10;;
9940;SDS011;5009;50.656;7.188;2024-01-30T14:26:52;12.53;;;9.17;;
9940;SDS011;5009;50.656;7.188;2024-01-30T14:29:18;11.97;;;9.30;;
9940;SDS011;5009;50.656;7.188;2024-01-30T14:31:44;13.20;;;10.83;;
9940;SDS011;5009;50.656;7.188;2024-01-30T14:34:09;12.27;;;10.03;;
9940;SDS011;5009;50.656;7.188;2024-01-30T14:36:36;14.00;;;10.27;;
9940;SDS011;5009;50.656;7.188;2024-01-30T14:39:02;11.00;;;9.77;;
9940;SDS011;5009;50.656;7.188;2024-01-30T14:41:28;11.13;;;9.03;;
9940;SDS011;5009;50.656;7.188;2024-01-30T14:43:54;11.53;;;9.30;;
9940;SDS011;5009;50.656;7.188;2024-01-30T14:46:20;11.20;;;9.87;;
9940;SDS011;5009;50.656;7.188;2024-01-30T14:48:46;13.50;;;9.30;;
9940;SDS011;5009;50.656;7.188;2024-01-30T14:51:12;13.20;;;9.23;;
9940;SDS011;5009;50.656;7.188;2024-01-30T14:53:38;10.83;;;8.80;;
9940;SDS011;5009;50.656;7.188;2024-01-30T14:56:04;11.90;;;8.73;;
9940;SDS011;5009;50.656;7.188;2024-01-30T14:58:30;9.57;;;8.57;;
9940;SDS011;5009;50.656;7.188;2024-01-30T15:00:56;13.13;;;9.83;;
9940;SDS011;5009;50.656;7.188;2024-01-30T15:03:21;13.23;;;9.07;;
9940;SDS011;5009;50.656;7.188;2024-01-30T15:05:47;10.20;;;8.83;;
9940;SDS011;5009;50.656;7.188;2024-01-30T15:08:13;10.83;;;9.53;;
9940;SDS011;5009;50.656;7.188;2024-01-30T15:10:38;15.40;;;11.87;;
9940;SDS011;5009;50.656;7.188;2024-01-30T15:13:04;15.13;;;12.17;;
9940;SDS011;5009;50.656;7.188;2024-01-30T15:15:30;42.07;;;24.47;;
9940;SDS011;5009;50.656;7.188;2024-01-30T15:17:56;23.43;;;15.73;;
9940;SDS011;5009;50.656;7.188;2024-01-30T15:20:22;18.70;;;13.50;;
9940;SDS011;5009;50.656;7.188;2024-01-30T15:22:48;13.37;;;9.77;;
9940;SDS011;5009;50.656;7.188;2024-01-30T15:25:14;11.37;;;8.67;;
9940;SDS011;5009;50.656;7.188;2024-01-30T15:27:39;11.73;;;9.37;;
9940;SDS011;5009;50.656;7.188;2024-01-30T15:30:05;13.17;;;9.27;;
9940;SDS011;5009;50.656;7.188;2024-01-30T15:32:32;11.03;;;9.17;;
9940;SDS011;5009;50.656;7.188;2024-01-30T15:34:57;11.47;;;8.50;;
9940;SDS011;5009;50.656;7.188;2024-01-30T15:37:27;9.97;;;8.63;;
9940;SDS011;5009;50.656;7.188;2024-01-30T15:39:53;13.43;;;8.50;;
9940;SDS011;5009;50.656;7.188;2024-01-30T15:42:18;11.13;;;8.77;;
9940;SDS011;5009;50.656;7.188;2024-01-30T15:44:44;12.43;;;8.97;;
9940;SDS011;5009;50.656;7.188;2024-01-30T15:47:10;11.37;;;9.60;;
9940;SDS011;5009;50.656;7.188;2024-01-30T15:49:35;12.53;;;9.60;;
9940;SDS011;5009;50.656;7.188;2024-01-30T15:52:01;10.17;;;9.07;;
9940;SDS011;5009;50.656;7.188;2024-01-30T15:54:26;13.43;;;9.07;;
9940;SDS011;5009;50.656;7.188;2024-01-30T15:56:52;12.57;;;9.63;;
9940;SDS011;5009;50.656;7.188;2024-01-30T15:59:18;9.67;;;8.73;;
9940;SDS011;5009;50.656;7.188;2024-01-30T16:01:43;10.40;;;8.83;;
9940;SDS011;5009;50.656;7.188;2024-01-30T16:04:13;9.80;;;8.73;;
9940;SDS011;5009;50.656;7.188;2024-01-30T16:06:42;12.10;;;9.43;;
9940;SDS011;5009;50.656;7.188;2024-01-30T16:09:08;10.50;;;8.27;;
9940;SDS011;5009;50.656;7.188;2024-01-30T16:11:35;10.67;;;8.13;;
9940;SDS011;5009;50.656;7.188;2024-01-30T16:14:01;12.40;;;8.10;;
9940;SDS011;5009;50.656;7.188;2024-01-30T16:16:27;12.60;;;8.73;;
9940;SDS011;5009;50.656;7.188;2024-01-30T16:18:53;13.40;;;9.23;;
9940;SDS011;5009;50.656;7.188;2024-01-30T16:21:19;10.50;;;9.40;;
9940;SDS011;5009;50.656;7.188;2024-01-30T16:23:45;12.87;;;9.53;;
9940;SDS011;5009;50.656;7.188;2024-01-30T16:26:10;12.30;;;9.47;;
9940;SDS011;5009;50.656;7.188;2024-01-30T16:28:36;12.03;;;10.30;;
9940;SDS011;5009;50.656;7.188;2024-01-30T16:31:02;10.70;;;8.57;;
9940;SDS011;5009;50.656;7.188;2024-01-30T16:33:28;15.30;;;12.83;;
9940;SDS011;5009;50.656;7.188;2024-01-30T16:35:54;11.17;;;9.73;;
9940;SDS011;5009;50.656;7.188;2024-01-30T16:38:20;15.10;;;10.60;;
9940;SDS011;5009;50.656;7.188;2024-01-30T16:40:45;12.93;;;10.83;;
9940;SDS011;5009;50.656;7.188;2024-01-30T16:43:11;16.27;;;11.00;;
9940;SDS011;5009;50.656;7.188;2024-01-30T16:45:37;12.57;;;11.27;;
9940;SDS011;5009;50.656;7.188;2024-01-30T16:48:03;13.63;;;11.60;;
9940;SDS011;5009;50.656;7.188;2024-01-30T16:50:29;11.67;;;10.47;;
9940;SDS011;5009;50.656;7.188;2024-01-30T16:52:54;14.67;;;10.30;;
9940;SDS011;5009;50.656;7.188;2024-01-30T16:55:20;11.60;;;9.80;;
9940;SDS011;5009;50.656;7.188;2024-01-30T16:57:47;11.83;;;10.57;;
9940;SDS011;5009;50.656;7.188;2024-01-30T17:00:12;19.27;;;14.03;;
9940;SDS011;5009;50.656;7.188;2024-01-30T17:02:39;13.37;;;11.60;;
9940;SDS011;5009;50.656;7.188;2024-01-30T17:05:05;13.37;;;10.47;;
9940;SDS011;5009;50.656;7.188;2024-01-30T17:07:31;11.37;;;9.73;;
9940;SDS011;5009;50.656;7.188;2024-01-30T17:10:00;16.80;;;13.23;;
9940;SDS011;5009;50.656;7.188;2024-01-30T17:12:26;15.23;;;13.20;;
9940;SDS011;5009;50.656;7.188;2024-01-30T17:14:53;18.43;;;16.63;;
9940;SDS011;5009;50.656;7.188;2024-01-30T17:17:18;18.70;;;15.97;;
9940;SDS011;5009;50.656;7.188;2024-01-30T17:19:44;13.37;;;11.53;;
9940;SDS011;5009;50.656;7.188;2024-01-30T17:22:10;13.10;;;10.60;;
9940;SDS011;5009;50.656;7.188;2024-01-30T17:24:37;14.13;;;11.47;;
9940;SDS011;5009;50.656;7.188;2024-01-30T17:27:03;14.33;;;12.73;;
9940;SDS011;5009;50.656;7.188;2024-01-30T17:29:29;14.07;;;12.20;;
9940;SDS011;5009;50.656;7.188;2024-01-30T17:31:54;14.30;;;10.70;;
9940;SDS011;5009;50.656;7.188;2024-01-30T17:34:20;10.97;;;9.60;;
9940;SDS011;5009;50.656;7.188;2024-01-30T17:36:49;12.63;;;9.93;;
9940;SDS011;5009;50.656;7.188;2024-01-30T17:39:15;14.97;;;10.17;;
9940;SDS011;5009;50.656;7.188;2024-01-30T17:41:40;11.23;;;8.93;;
9940;SDS011;5009;50.656;7.188;2024-01-30T17:44:06;11.77;;;10.10;;
9940;SDS011;5009;50.656;7.188;2024-01-30T17:46:32;12.43;;;9.10;;
9940;SDS011;5009;50.656;7.188;2024-01-30T17:48:57;13.47;;;10.60;;
9940;SDS011;5009;50.656;7.188;2024-01-30T17:51:23;14.57;;;11.50;;
9940;SDS011;5009;50.656;7.188;2024-01-30T17:53:49;14.57;;;8.40;;
9940;SDS011;5009;50.656;7.188;2024-01-30T17:56:17;11.50;;;7.30;;
9940;SDS011;5009;50.656;7.188;2024-01-30T17:58:43;10.20;;;6.93;;
9940;SDS011;5009;50.656;7.188;2024-01-30T18:01:08;7.60;;;5.80;;
9940;SDS011;5009;50.656;7.188;2024-01-30T18:03:36;7.63;;;5.47;;
9940;SDS011;5009;50.656;7.188;2024-01-30T18:06:02;8.47;;;5.33;;
9940;SDS011;5009;50.656;7.188;2024-01-30T18:08:27;9.90;;;4.93;;
9940;SDS011;5009;50.656;7.188;2024-01-30T18:10:53;4.93;;;4.43;;
9940;SDS011;5009;50.656;7.188;2024-01-30T18:13:19;6.37;;;4.30;;
9940;SDS011;5009;50.656;7.188;2024-01-30T18:15:45;8.33;;;4.50;;
9940;SDS011;5009;50.656;7.188;2024-01-30T18:18:10;6.20;;;4.80;;
9940;SDS011;5009;50.656;7.188;2024-01-30T18:20:38;6.33;;;4.60;;
9940;SDS011;5009;50.656;7.188;2024-01-30T18:23:04;6.77;;;4.30;;
9940;SDS011;5009;50.656;7.188;2024-01-30T18:25:29;4.37;;;3.70;;
9940;SDS011;5009;50.656;7.188;2024-01-30T18:27:55;7.10;;;3.63;;
9940;SDS011;5009;50.656;7.188;2024-01-30T18:30:21;6.43;;;3.83;;
9940;SDS011;5009;50.656;7.188;2024-01-30T18:32:47;6.43;;;3.43;;
9940;SDS011;5009;50.656;7.188;2024-01-30T18:35:13;3.97;;;3.20;;
9940;SDS011;5009;50.656;7.188;2024-01-30T18:37:39;4.63;;;3.07;;
9940;SDS011;5009;50.656;7.188;2024-01-30T18:40:05;4.27;;;3.13;;
9940;SDS011;5009;50.656;7.188;2024-01-30T18:42:31;3.17;;;2.87;;
9940;SDS011;5009;50.656;7.188;2024-01-30T18:44:57;6.50;;;3.17;;
9940;SDS011;5009;50.656;7.188;2024-01-30T18:47:23;5.97;;;3.20;;
9940;SDS011;5009;50.656;7.188;2024-01-30T18:49:49;4.67;;;3.20;;
9940;SDS011;5009;50.656;7.188;2024-01-30T18:52:16;6.17;;;3.07;;
9940;SDS011;5009;50.656;7.188;2024-01-30T18:54:42;3.73;;;2.90;;
9940;SDS011;5009;50.656;7.188;2024-01-30T18:57:08;4.23;;;2.90;;
9940;SDS011;5009;50.656;7.188;2024-01-30T18:59:33;4.30;;;2.70;;
9940;SDS011;5009;50.656;7.188;2024-01-30T19:01:59;4.47;;;3.13;;
9940;SDS011;5009;50.656;7.188;2024-01-30T19:04:24;4.80;;;2.67;;
9940;SDS011;5009;50.656;7.188;2024-01-30T19:06:50;4.60;;;2.87;;
9940;SDS011;5009;50.656;7.188;2024-01-30T19:09:17;3.77;;;2.40;;
9940;SDS011;5009;50.656;7.188;2024-01-30T19:11:43;3.07;;;2.47;;
9940;SDS011;5009;50.656;7.188;2024-01-30T19:14:09;3.53;;;2.57;;
9940;SDS011;5009;50.656;7.188;2024-01-30T19:16:35;4.93;;;2.50;;
9940;SDS011;5009;50.656;7.188;2024-01-30T19:19:01;5.70;;;2.83;;
9940;SDS011;5009;50.656;7.188;2024-01-30T19:21:31;4.70;;;2.57;;
9940;SDS011;5009;50.656;7.188;2024-01-30T19:24:03;4.87;;;2.43;;
9940;SDS011;5009;50.656;7.188;2024-01-30T19:26:29;4.07;;;2.90;;
9940;SDS011;5009;50.656;7.188;2024-01-30T19:28:55;4.23;;;2.80;;
9940;SDS011;5009;50.656;7.188;2024-01-30T19:31:22;6.40;;;3.47;;
9940;SDS011;5009;50.656;7.188;2024-01-30T19:33:48;5.97;;;3.20;;
9940;SDS011;5009;50.656;7.188;2024-01-30T19:36:14;4.33;;;2.50;;
9940;SDS011;5009;50.656;7.188;2024-01-30T19:38:40;3.67;;;2.60;;
9940;SDS011;5009;50.656;7.188;2024-01-30T19:41:06;5.33;;;3.10;;
9940;SDS011;5009;50.656;7.188;2024-01-30T19:43:32;4.23;;;2.83;;
9940;SDS011;5009;50.656;7.188;2024-01-30T19:45:58;4.13;;;2.60;;
9940;SDS011;5009;50.656;7.188;2024-01-30T19:48:24;5.47;;;2.93;;
9940;SDS011;5009;50.656;7.188;2024-01-30T19:50:50;5.50;;;3.37;;
9940;SDS011;5009;50.656;7.188;2024-01-30T19:53:16;4.07;;;2.90;;
9940;SDS011;5009;50.656;7.188;2024-01-30T19:55:43;4.43;;;2.97;;